MSC Viviana — D5ND7 — position and weather

sailwx.info

Track history (hours):
 
Tides and Currents Weather Stations Pressure Air Temp Water Temp Dewpoint Dewpoint Depression Visibility Wind Speed Wind Dir Waves Ship Positions

MSC Viviana

Last reported at 2017-Oct-10 03:54 UTC. Time now 2017-Oct-17 02:21 UTC.
Position N 36°01' E 015°03'.

Length 400 m; draft 14.9 m.

Type: Cargo ship. MMSI: 636017882.

Date/timePositionNaut miles runAvg speedWind from/ knotsBaromVisibWave heightAir tempDewpointWater temp
2017-Oct-10 03:54N 36°01' E 015°03'1320.5
2017-Oct-10 03:15N 36°05' E 014°47'520.7
2017-Oct-10 02:59N 36°07' E 014°41'1020.6
2017-Oct-10 02:30N 36°11' E 014°30'1020.8
2017-Oct-10 02:00N 36°15' E 014°18'1020.6
2017-Oct-10 01:30N 36°19' E 014°06'1020.8
2017-Oct-10 01:00N 36°24' E 013°54'1020.6
2017-Oct-10 00:30N 36°28' E 013°43'58319.8
2017-Oct-08 19:04N 36°45' E 001°37'219.1
2017-Oct-08 18:59N 36°44' E 001°36'919.0
2017-Oct-08 18:30N 36°43' E 001°24'1018.7
2017-Oct-08 18:00N 36°42' E 001°12'918.4
2017-Oct-08 17:30N 36°41' E 001°01'918.9
2017-Oct-08 17:00N 36°39' E 000°50'1019.5
2017-Oct-08 16:30N 36°38' E 000°38'1019.4
2017-Oct-08 16:00N 36°37' E 000°26'1019.2
2017-Oct-08 15:30N 36°35' E 000°14'3719.6
2017-Oct-08 13:37N 36°30' W 000°32'219.6
2017-Oct-08 13:30N 36°30' W 000°34'236 7.6
2017-Oct-07 06:20N 36°09' W 005°26'0 0.0
2017-Oct-07 06:00N 36°09' W 005°26'0 0.0
2017-Oct-07 05:29N 36°09' W 005°26'0 0.0
2017-Oct-07 05:00N 36°09' W 005°26'0 0.0
2017-Oct-07 04:30N 36°09' W 005°26'0 0.0
2017-Oct-07 03:57N 36°09' W 005°26'0 0.0
2017-Oct-07 03:30N 36°09' W 005°26'0 0.0
2017-Oct-07 03:00N 36°09' W 005°26'0 0.0
2017-Oct-07 02:30N 36°09' W 005°26'0 0.0
2017-Oct-07 02:00N 36°09' W 005°26'0 0.0
2017-Oct-07 01:30N 36°09' W 005°26'0 0.0
2017-Oct-07 01:00N 36°09' W 005°26'0 0.0
2017-Oct-07 00:30N 36°09' W 005°26'0 0.0
2017-Oct-07 00:00N 36°09' W 005°26'0 0.0
2017-Oct-06 23:30N 36°09' W 005°26'0 0.0
2017-Oct-06 22:57N 36°09' W 005°26'0 0.0
2017-Oct-06 22:30N 36°09' W 005°26'0 0.0
2017-Oct-06 22:00N 36°09' W 005°26'0 0.0
2017-Oct-06 21:30N 36°09' W 005°26'0 0.0
2017-Oct-06 21:00N 36°09' W 005°26'0 0.0
2017-Oct-06 20:30N 36°09' W 005°26'0 0.0
2017-Oct-06 20:00N 36°09' W 005°26'1 1.7
2017-Oct-06 19:30N 36°09' W 005°25'2 3.7
2017-Oct-06 19:00N 36°08' W 005°23'3 5.5
2017-Oct-06 18:30N 36°06' W 005°22'2 4.3
2017-Oct-06 18:00N 36°05' W 005°19'4 7.6
2017-Oct-06 17:30N 36°05' W 005°14'1 1.8
2017-Oct-06 17:00N 36°04' W 005°15'1 1.1
2017-Oct-06 16:30N 36°04' W 005°15'1 2.4
2017-Oct-06 16:00N 36°04' W 005°17'2 4.8
2017-Oct-06 15:30N 36°04' W 005°20'3 6.1
2017-Oct-06 15:00N 36°01' W 005°21'4 8.9
2017-Oct-06 14:30N 35°58' W 005°26'4115.0
2017-Oct-06 11:47N 35°55' W 006°16'618.7
2017-Oct-06 11:28N 35°56' W 006°23'1318.9
2017-Oct-06 10:48N 35°59' W 006°38'4818.5
2017-Oct-06 08:12N 36°12' W 007°36'1318.0
2017-Oct-06 07:27N 36°15' W 007°52'817.7
2017-Oct-06 07:01N 36°17' W 008°01'917.8
2017-Oct-06 06:28N 36°20' W 008°13'917.6
2017-Oct-06 05:59N 36°22' W 008°23'918.2
2017-Oct-06 05:30N 36°24' W 008°33'917.8
2017-Oct-06 05:00N 36°27' W 008°44'918.0
2017-Oct-06 04:30N 36°29' W 008°55'918.2
2017-Oct-06 04:01N 36°31' W 009°06'917.6
2017-Oct-06 03:31N 36°34' W 009°16'918.3
2017-Oct-06 03:01N 36°40' W 009°25'918.8
2017-Oct-06 02:31N 36°47' W 009°32'918.2
2017-Oct-06 02:01N 36°56' W 009°35'918.1
2017-Oct-06 01:30N 37°05' W 009°38'918.3
2017-Oct-06 01:00N 37°13' W 009°41'918.3
2017-Oct-06 00:31N 37°22' W 009°44'918.5
2017-Oct-06 00:01N 37°31' W 009°47'918.3
2017-Oct-05 23:30N 37°40' W 009°50'918.3
2017-Oct-05 23:00N 37°49' W 009°53'918.8
2017-Oct-05 22:31N 37°58' W 009°55'918.2
2017-Oct-05 22:01N 38°07' W 009°57'918.2
2017-Oct-05 21:30N 38°16' W 009°59'918.3
2017-Oct-05 21:00N 38°25' W 010°01'918.9
2017-Oct-05 20:31N 38°34' W 010°05'918.7
2017-Oct-05 20:01N 38°43' W 010°07'918.8
2017-Oct-05 19:30N 38°53' W 010°08'918.7
2017-Oct-05 19:01N 39°02' W 010°07'1019.2
2017-Oct-05 18:31N 39°12' W 010°07'1019.4
2017-Oct-05 18:00N 39°21' W 010°07'1019.3
2017-Oct-05 17:30N 39°31' W 010°07'1218.9
2017-Oct-05 16:52N 39°43' W 010°06'2819.2
2017-Oct-05 15:25N 40°11' W 010°06'1319.4
2017-Oct-05 14:44N 40°24' W 010°06'419.1
2017-Oct-05 14:31N 40°28' W 010°06'1319.0
2017-Oct-05 13:49N 40°42' W 010°06'719.2
2017-Oct-05 13:28N 40°48' W 010°07'1319.1
2017-Oct-05 12:47N 41°01' W 010°07'1719.3
2017-Oct-05 11:53N 41°19' W 010°06'1919.1
2017-Oct-05 10:53N 41°38' W 010°07'36519.9
2017-Oct-04 16:35N 47°19' W 007°04'219.8
2017-Oct-04 16:30N 47°20' W 007°03'1619.9
2017-Oct-04 15:43N 47°34' W 006°51'2019.8
2017-Oct-04 14:43N 47°51' W 006°37'719.4
2017-Oct-04 14:23N 47°57' W 006°33'819.3
2017-Oct-04 13:58N 48°04' W 006°28'918.9
2017-Oct-04 13:28N 48°12' W 006°21'918.9
2017-Oct-04 13:00N 48°20' W 006°15'1219.0
2017-Oct-04 12:22N 48°30' W 006°05'719.5
2017-Oct-04 12:00N 48°37' W 005°60'1019.9
2017-Oct-04 11:30N 48°45' W 005°53'1019.7
2017-Oct-04 11:00N 48°54' W 005°46'1320.9
2017-Oct-04 10:22N 49°01' W 005°29'921.2
2017-Oct-04 09:57N 49°05' W 005°17'1321.5
2017-Oct-04 09:21N 49°12' W 005°00'721.4
2017-Oct-04 09:00N 49°16' W 004°51'3521.0
2017-Oct-04 07:21N 49°33' W 004°05'819.7
2017-Oct-04 06:57N 49°38' W 003°55'919.6
2017-Oct-04 06:30N 49°41' W 003°42'1019.3
2017-Oct-04 05:59N 49°46' W 003°29'919.0
2017-Oct-04 05:30N 49°51' W 003°17'918.9
2017-Oct-04 05:00N 49°56' W 003°04'918.5
2017-Oct-04 04:30N 49°60' W 002°51'1019.1
2017-Oct-04 04:00N 50°02' W 002°37'2020.1
2017-Oct-04 03:00N 50°08' W 002°06'1121.5
2017-Oct-04 02:30N 50°10' W 001°51'1122.2
2017-Oct-04 02:01N 50°12' W 001°34'1122.3
2017-Oct-04 01:30N 50°16' W 001°17'2722.6
2017-Oct-04 00:18N 50°24' W 000°36'621.7
2017-Oct-04 00:01N 50°25' W 000°26'1020.9
2017-Oct-03 23:31N 50°28' W 000°11'1020.5
2017-Oct-03 23:00N 50°31' E 000°05'1020.1
2017-Oct-03 22:30N 50°34' E 000°20'1019.9
2017-Oct-03 22:01N 50°38' E 000°35'1019.4
2017-Oct-03 21:31N 50°43' E 000°47'1019.0
2017-Oct-03 21:00N 50°47' E 001°01'919.0
2017-Oct-03 20:31N 50°52' E 001°14'1019.5
2017-Oct-03 20:00N 50°60' E 001°24'1121.3
2017-Oct-03 19:31N 51°07' E 001°36'1122.0
2017-Oct-03 19:00N 51°16' E 001°47'1122.2
2017-Oct-03 18:30N 51°26' E 001°55'1121.5
2017-Oct-03 18:00N 51°34' E 002°05'1020.9
2017-Oct-03 17:30N 51°42' E 002°16'2320.1
2017-Oct-03 16:21N 51°58' E 002°44'719.0
2017-Oct-03 16:00N 52°02' E 002°52'1019.0
2017-Oct-03 15:29N 52°03' E 003°08'1019.0
2017-Oct-03 14:59N 52°04' E 003°23'1717.2
2017-Oct-03 14:00N 52°03' E 003°51'3 5.3
2017-Oct-03 13:30N 52°02' E 003°55'4 7.6
2017-Oct-03 13:00N 52°00' E 003°60'4 7.9
2017-Oct-03 12:30N 51°58' E 004°05'2 3.2
2017-Oct-03 12:00N 51°57' E 004°02'0 0.0
2017-Oct-03 11:30N 51°57' E 004°02'0 0.0
2017-Oct-03 11:00N 51°57' E 004°02'0 0.0
2017-Oct-03 10:30N 51°57' E 004°02'0 0.0
2017-Oct-03 10:00N 51°57' E 004°02'0 0.0
2017-Oct-03 09:30N 51°57' E 004°02'0 0.0
2017-Oct-03 09:01N 51°57' E 004°02'0 0.0
2017-Oct-03 08:30N 51°57' E 004°02'0 0.0
2017-Oct-03 08:01N 51°57' E 004°02'0 0.0
2017-Oct-03 07:30N 51°57' E 004°02'0 0.0
2017-Oct-03 07:00N 51°57' E 004°02'0 0.0
2017-Oct-03 06:30N 51°57' E 004°02'0 0.0
2017-Oct-03 06:00N 51°57' E 004°02'0 0.0
2017-Oct-03 05:30N 51°57' E 004°02'0 0.0
2017-Oct-03 05:00N 51°57' E 004°02'0 0.0
2017-Oct-03 04:30N 51°57' E 004°02'0 0.0
2017-Oct-03 04:00N 51°57' E 004°02'0 0.0
2017-Oct-03 03:30N 51°57' E 004°02'0 0.0
2017-Oct-03 03:00N 51°57' E 004°02'0 0.0
2017-Oct-03 02:30N 51°57' E 004°02'0 0.0
2017-Oct-03 02:00N 51°57' E 004°02'0 0.0
2017-Oct-03 01:30N 51°57' E 004°02'0 0.0
2017-Oct-03 01:00N 51°57' E 004°02'0 0.0
2017-Oct-03 00:30N 51°57' E 004°02'0 0.0
2017-Oct-03 00:00N 51°57' E 004°02'0 0.0
2017-Oct-02 23:30N 51°57' E 004°02'0 0.0
2017-Oct-02 23:00N 51°57' E 004°02'0 0.0
2017-Oct-02 22:30N 51°57' E 004°02'0 0.0
2017-Oct-02 22:00N 51°57' E 004°02'0 0.0
2017-Oct-02 21:31N 51°57' E 004°02'0 0.0
2017-Oct-02 21:00N 51°57' E 004°02'0 0.0
2017-Oct-02 20:30N 51°57' E 004°02'0 0.0
2017-Oct-02 20:00N 51°57' E 004°02'0 0.0
2017-Oct-02 19:30N 51°57' E 004°02'0 0.0
2017-Oct-02 19:00N 51°57' E 004°02'0 0.0
2017-Oct-02 18:31N 51°57' E 004°02'0 0.0
2017-Oct-02 18:00N 51°57' E 004°02'0 0.0
2017-Oct-02 17:30N 51°57' E 004°02'0 0.0
2017-Oct-02 17:00N 51°57' E 004°02'0 0.0
2017-Oct-02 16:30N 51°57' E 004°02'0 0.0
2017-Oct-02 16:00N 51°57' E 004°02'0 0.0
2017-Oct-02 15:31N 51°57' E 004°02'0 0.0
2017-Oct-02 15:00N 51°57' E 004°02'0 0.0
2017-Oct-02 14:30N 51°57' E 004°02'0 0.0
2017-Oct-02 14:00N 51°57' E 004°02'0 0.0
2017-Oct-02 13:30N 51°57' E 004°02'0 0.0
2017-Oct-02 13:00N 51°57' E 004°02'0 0.0
2017-Oct-02 12:30N 51°57' E 004°02'0 0.0
2017-Oct-02 12:00N 51°57' E 004°02'0 0.0
2017-Oct-02 11:30N 51°57' E 004°02'0 0.0
2017-Oct-02 11:00N 51°57' E 004°02'0 0.0
2017-Oct-02 10:30N 51°57' E 004°02'0 0.0
2017-Oct-02 10:00N 51°57' E 004°02'0 0.0
2017-Oct-02 09:30N 51°57' E 004°02'0 0.0
2017-Oct-02 09:00N 51°57' E 004°02'0 0.0
2017-Oct-02 08:30N 51°57' E 004°02'0 0.0
2017-Oct-02 08:00N 51°57' E 004°02'0 0.0
2017-Oct-02 07:30N 51°57' E 004°02'0 0.0
2017-Oct-02 07:00N 51°57' E 004°02'0 0.0
2017-Oct-02 06:30N 51°57' E 004°02'0 0.0
2017-Oct-02 06:00N 51°57' E 004°02'0 0.0
2017-Oct-02 05:31N 51°57' E 004°02'0 0.0
2017-Oct-02 05:00N 51°57' E 004°02'0 0.0
2017-Oct-02 04:30N 51°57' E 004°02'0 0.0
2017-Oct-02 04:00N 51°57' E 004°02'0 0.0
2017-Oct-02 03:30N 51°57' E 004°02'0 0.0
2017-Oct-02 03:00N 51°57' E 004°02'0 0.0
2017-Oct-02 02:30N 51°57' E 004°02'0 0.0
2017-Oct-02 02:00N 51°57' E 004°02'0 0.0
2017-Oct-02 01:30N 51°57' E 004°02'0 0.0
2017-Oct-02 01:00N 51°57' E 004°02'0 0.0
2017-Oct-02 00:30N 51°57' E 004°02'0 0.0
2017-Oct-02 00:01N 51°57' E 004°02'0 0.0
2017-Oct-01 23:31N 51°57' E 004°02'0 0.0
2017-Oct-01 23:00N 51°57' E 004°02'0 0.0
2017-Oct-01 22:30N 51°57' E 004°02'0 0.8
2017-Oct-01 22:00N 51°58' E 004°03'1 1.6
2017-Oct-01 21:30N 51°58' E 004°04'1 2.9
2017-Oct-01 21:00N 51°59' E 004°04'510.5
2017-Oct-01 20:31N 52°01' E 003°55'612.4
2017-Oct-01 20:00N 51°60' E 003°45'4 7.2
2017-Oct-01 19:30N 51°59' E 003°40'713.8
2017-Oct-01 19:00N 51°56' E 003°30'1216.8
2017-Oct-01 18:17N 51°47' E 003°16'514.8
2017-Oct-01 17:57N 51°43' E 003°12'512.3
2017-Oct-01 17:30N 51°37' E 003°11'815.9
2017-Oct-01 17:00N 51°30' E 003°05'612.7
2017-Oct-01 16:30N 51°25' E 003°00'816.2
2017-Oct-01 16:00N 51°24' E 003°13'816.8
2017-Oct-01 15:30N 51°25' E 003°27'612.1
2017-Oct-01 15:00N 51°26' E 003°36'510.8
2017-Oct-01 14:30N 51°23' E 003°43'714.7
2017-Oct-01 14:00N 51°22' E 003°55'510.2
2017-Oct-01 13:30N 51°25' E 004°02'510.6
2017-Oct-01 13:00N 51°23' E 004°10'5 9.2
2017-Oct-01 12:30N 51°21' E 004°16'3 6.4
2017-Oct-01 12:00N 51°17' E 004°16'0 0.3
2017-Oct-01 11:30N 51°17' E 004°15'0 0.0
2017-Oct-01 11:00N 51°17' E 004°15'0 0.0
2017-Oct-01 10:30N 51°17' E 004°15'0 0.0
2017-Oct-01 10:00N 51°17' E 004°15'0 0.0
2017-Oct-01 09:30N 51°17' E 004°15'0 0.0
2017-Oct-01 09:00N 51°17' E 004°15'0 0.0
2017-Oct-01 08:30N 51°17' E 004°15'0 0.0
2017-Oct-01 08:00N 51°17' E 004°15'0 0.0
2017-Oct-01 07:30N 51°17' E 004°15'0 0.0
2017-Oct-01 07:00N 51°17' E 004°15'0 0.0
2017-Oct-01 06:30N 51°17' E 004°15'0 0.0
2017-Oct-01 06:00N 51°17' E 004°15'0 0.0
2017-Oct-01 05:30N 51°17' E 004°15'0 0.0
2017-Oct-01 05:00N 51°17' E 004°15'0 0.0
2017-Oct-01 04:30N 51°17' E 004°15'0 0.0
2017-Oct-01 04:00N 51°17' E 004°15'0 0.0
2017-Oct-01 03:30N 51°17' E 004°15'0 0.0
2017-Oct-01 03:00N 51°17' E 004°15'  
Track history (hours):
 
Tides and Currents Weather Stations Pressure Air Temp Water Temp Dewpoint Dewpoint Depression Visibility Wind Speed Wind Dir Waves Ship Positions

MSC Viviana

Last reported at 2017-Oct-10 03:54 UTC. Time now 2017-Oct-17 02:21 UTC.
Position N 36°01' E 015°03'.

Length 400 m; draft 14.9 m.

Type: Cargo ship. MMSI: 636017882.

Date/timePositionNaut miles runAvg speedWind from/ knotsBaromVisibWave heightAir tempDewpointWater temp
2017-Oct-10 03:54N 36°01' E 015°03'1320.5
2017-Oct-10 03:15N 36°05' E 014°47'520.7
2017-Oct-10 02:59N 36°07' E 014°41'1020.6
2017-Oct-10 02:30N 36°11' E 014°30'1020.8
2017-Oct-10 02:00N 36°15' E 014°18'1020.6
2017-Oct-10 01:30N 36°19' E 014°06'1020.8
2017-Oct-10 01:00N 36°24' E 013°54'1020.6
2017-Oct-10 00:30N 36°28' E 013°43'58319.8
2017-Oct-08 19:04N 36°45' E 001°37'219.1
2017-Oct-08 18:59N 36°44' E 001°36'919.0
2017-Oct-08 18:30N 36°43' E 001°24'1018.7
2017-Oct-08 18:00N 36°42' E 001°12'918.4
2017-Oct-08 17:30N 36°41' E 001°01'918.9
2017-Oct-08 17:00N 36°39' E 000°50'1019.5
2017-Oct-08 16:30N 36°38' E 000°38'1019.4
2017-Oct-08 16:00N 36°37' E 000°26'1019.2
2017-Oct-08 15:30N 36°35' E 000°14'3719.6
2017-Oct-08 13:37N 36°30' W 000°32'219.6
2017-Oct-08 13:30N 36°30' W 000°34'236 7.6
2017-Oct-07 06:20N 36°09' W 005°26'0 0.0
2017-Oct-07 06:00N 36°09' W 005°26'0 0.0
2017-Oct-07 05:29N 36°09' W 005°26'0 0.0
2017-Oct-07 05:00N 36°09' W 005°26'0 0.0
2017-Oct-07 04:30N 36°09' W 005°26'0 0.0
2017-Oct-07 03:57N 36°09' W 005°26'0 0.0
2017-Oct-07 03:30N 36°09' W 005°26'0 0.0
2017-Oct-07 03:00N 36°09' W 005°26'0 0.0
2017-Oct-07 02:30N 36°09' W 005°26'0 0.0
2017-Oct-07 02:00N 36°09' W 005°26'0 0.0
2017-Oct-07 01:30N 36°09' W 005°26'0 0.0
2017-Oct-07 01:00N 36°09' W 005°26'0 0.0
2017-Oct-07 00:30N 36°09' W 005°26'0 0.0
2017-Oct-07 00:00N 36°09' W 005°26'0 0.0
2017-Oct-06 23:30N 36°09' W 005°26'0 0.0
2017-Oct-06 22:57N 36°09' W 005°26'0 0.0
2017-Oct-06 22:30N 36°09' W 005°26'0 0.0
2017-Oct-06 22:00N 36°09' W 005°26'0 0.0
2017-Oct-06 21:30N 36°09' W 005°26'0 0.0
2017-Oct-06 21:00N 36°09' W 005°26'0 0.0
2017-Oct-06 20:30N 36°09' W 005°26'0 0.0
2017-Oct-06 20:00N 36°09' W 005°26'1 1.7
2017-Oct-06 19:30N 36°09' W 005°25'2 3.7
2017-Oct-06 19:00N 36°08' W 005°23'3 5.5
2017-Oct-06 18:30N 36°06' W 005°22'2 4.3
2017-Oct-06 18:00N 36°05' W 005°19'4 7.6
2017-Oct-06 17:30N 36°05' W 005°14'1 1.8
2017-Oct-06 17:00N 36°04' W 005°15'1 1.1
2017-Oct-06 16:30N 36°04' W 005°15'1 2.4
2017-Oct-06 16:00N 36°04' W 005°17'2 4.8
2017-Oct-06 15:30N 36°04' W 005°20'3 6.1
2017-Oct-06 15:00N 36°01' W 005°21'4 8.9
2017-Oct-06 14:30N 35°58' W 005°26'4115.0
2017-Oct-06 11:47N 35°55' W 006°16'618.7
2017-Oct-06 11:28N 35°56' W 006°23'1318.9
2017-Oct-06 10:48N 35°59' W 006°38'4818.5
2017-Oct-06 08:12N 36°12' W 007°36'1318.0
2017-Oct-06 07:27N 36°15' W 007°52'817.7
2017-Oct-06 07:01N 36°17' W 008°01'917.8
2017-Oct-06 06:28N 36°20' W 008°13'917.6
2017-Oct-06 05:59N 36°22' W 008°23'918.2
2017-Oct-06 05:30N 36°24' W 008°33'917.8
2017-Oct-06 05:00N 36°27' W 008°44'918.0
2017-Oct-06 04:30N 36°29' W 008°55'918.2
2017-Oct-06 04:01N 36°31' W 009°06'917.6
2017-Oct-06 03:31N 36°34' W 009°16'918.3
2017-Oct-06 03:01N 36°40' W 009°25'918.8
2017-Oct-06 02:31N 36°47' W 009°32'918.2
2017-Oct-06 02:01N 36°56' W 009°35'918.1
2017-Oct-06 01:30N 37°05' W 009°38'918.3
2017-Oct-06 01:00N 37°13' W 009°41'918.3
2017-Oct-06 00:31N 37°22' W 009°44'918.5
2017-Oct-06 00:01N 37°31' W 009°47'918.3
2017-Oct-05 23:30N 37°40' W 009°50'918.3
2017-Oct-05 23:00N 37°49' W 009°53'918.8
2017-Oct-05 22:31N 37°58' W 009°55'918.2
2017-Oct-05 22:01N 38°07' W 009°57'918.2
2017-Oct-05 21:30N 38°16' W 009°59'918.3
2017-Oct-05 21:00N 38°25' W 010°01'918.9
2017-Oct-05 20:31N 38°34' W 010°05'918.7
2017-Oct-05 20:01N 38°43' W 010°07'918.8
2017-Oct-05 19:30N 38°53' W 010°08'918.7
2017-Oct-05 19:01N 39°02' W 010°07'1019.2
2017-Oct-05 18:31N 39°12' W 010°07'1019.4
2017-Oct-05 18:00N 39°21' W 010°07'1019.3
2017-Oct-05 17:30N 39°31' W 010°07'1218.9
2017-Oct-05 16:52N 39°43' W 010°06'2819.2
2017-Oct-05 15:25N 40°11' W 010°06'1319.4
2017-Oct-05 14:44N 40°24' W 010°06'419.1
2017-Oct-05 14:31N 40°28' W 010°06'1319.0
2017-Oct-05 13:49N 40°42' W 010°06'719.2
2017-Oct-05 13:28N 40°48' W 010°07'1319.1
2017-Oct-05 12:47N 41°01' W 010°07'1719.3
2017-Oct-05 11:53N 41°19' W 010°06'1919.1
2017-Oct-05 10:53N 41°38' W 010°07'36519.9
2017-Oct-04 16:35N 47°19' W 007°04'219.8
2017-Oct-04 16:30N 47°20' W 007°03'1619.9
2017-Oct-04 15:43N 47°34' W 006°51'2019.8
2017-Oct-04 14:43N 47°51' W 006°37'719.4
2017-Oct-04 14:23N 47°57' W 006°33'819.3
2017-Oct-04 13:58N 48°04' W 006°28'918.9
2017-Oct-04 13:28N 48°12' W 006°21'918.9
2017-Oct-04 13:00N 48°20' W 006°15'1219.0
2017-Oct-04 12:22N 48°30' W 006°05'719.5
2017-Oct-04 12:00N 48°37' W 005°60'1019.9
2017-Oct-04 11:30N 48°45' W 005°53'1019.7
2017-Oct-04 11:00N 48°54' W 005°46'1320.9
2017-Oct-04 10:22N 49°01' W 005°29'921.2
2017-Oct-04 09:57N 49°05' W 005°17'1321.5
2017-Oct-04 09:21N 49°12' W 005°00'721.4
2017-Oct-04 09:00N 49°16' W 004°51'3521.0
2017-Oct-04 07:21N 49°33' W 004°05'819.7
2017-Oct-04 06:57N 49°38' W 003°55'919.6
2017-Oct-04 06:30N 49°41' W 003°42'1019.3
2017-Oct-04 05:59N 49°46' W 003°29'919.0
2017-Oct-04 05:30N 49°51' W 003°17'918.9
2017-Oct-04 05:00N 49°56' W 003°04'918.5
2017-Oct-04 04:30N 49°60' W 002°51'1019.1
2017-Oct-04 04:00N 50°02' W 002°37'2020.1
2017-Oct-04 03:00N 50°08' W 002°06'1121.5
2017-Oct-04 02:30N 50°10' W 001°51'1122.2
2017-Oct-04 02:01N 50°12' W 001°34'1122.3
2017-Oct-04 01:30N 50°16' W 001°17'2722.6
2017-Oct-04 00:18N 50°24' W 000°36'621.7
2017-Oct-04 00:01N 50°25' W 000°26'1020.9
2017-Oct-03 23:31N 50°28' W 000°11'1020.5
2017-Oct-03 23:00N 50°31' E 000°05'1020.1
2017-Oct-03 22:30N 50°34' E 000°20'1019.9
2017-Oct-03 22:01N 50°38' E 000°35'1019.4
2017-Oct-03 21:31N 50°43' E 000°47'1019.0
2017-Oct-03 21:00N 50°47' E 001°01'919.0
2017-Oct-03 20:31N 50°52' E 001°14'1019.5
2017-Oct-03 20:00N 50°60' E 001°24'1121.3
2017-Oct-03 19:31N 51°07' E 001°36'1122.0
2017-Oct-03 19:00N 51°16' E 001°47'1122.2
2017-Oct-03 18:30N 51°26' E 001°55'1121.5
2017-Oct-03 18:00N 51°34' E 002°05'1020.9
2017-Oct-03 17:30N 51°42' E 002°16'2320.1
2017-Oct-03 16:21N 51°58' E 002°44'719.0
2017-Oct-03 16:00N 52°02' E 002°52'1019.0
2017-Oct-03 15:29N 52°03' E 003°08'1019.0
2017-Oct-03 14:59N 52°04' E 003°23'1717.2
2017-Oct-03 14:00N 52°03' E 003°51'3 5.3
2017-Oct-03 13:30N 52°02' E 003°55'4 7.6
2017-Oct-03 13:00N 52°00' E 003°60'4 7.9
2017-Oct-03 12:30N 51°58' E 004°05'2 3.2
2017-Oct-03 12:00N 51°57' E 004°02'0 0.0
2017-Oct-03 11:30N 51°57' E 004°02'0 0.0
2017-Oct-03 11:00N 51°57' E 004°02'0 0.0
2017-Oct-03 10:30N 51°57' E 004°02'0 0.0
2017-Oct-03 10:00N 51°57' E 004°02'0 0.0
2017-Oct-03 09:30N 51°57' E 004°02'0 0.0
2017-Oct-03 09:01N 51°57' E 004°02'0 0.0
2017-Oct-03 08:30N 51°57' E 004°02'0 0.0
2017-Oct-03 08:01N 51°57' E 004°02'0 0.0
2017-Oct-03 07:30N 51°57' E 004°02'0 0.0
2017-Oct-03 07:00N 51°57' E 004°02'0 0.0
2017-Oct-03 06:30N 51°57' E 004°02'0 0.0
2017-Oct-03 06:00N 51°57' E 004°02'0 0.0
2017-Oct-03 05:30N 51°57' E 004°02'0 0.0
2017-Oct-03 05:00N 51°57' E 004°02'0 0.0
2017-Oct-03 04:30N 51°57' E 004°02'0 0.0
2017-Oct-03 04:00N 51°57' E 004°02'0 0.0
2017-Oct-03 03:30N 51°57' E 004°02'0 0.0
2017-Oct-03 03:00N 51°57' E 004°02'0 0.0
2017-Oct-03 02:30N 51°57' E 004°02'0 0.0
2017-Oct-03 02:00N 51°57' E 004°02'0 0.0
2017-Oct-03 01:30N 51°57' E 004°02'0 0.0
2017-Oct-03 01:00N 51°57' E 004°02'0 0.0
2017-Oct-03 00:30N 51°57' E 004°02'0 0.0
2017-Oct-03 00:00N 51°57' E 004°02'0 0.0
2017-Oct-02 23:30N 51°57' E 004°02'0 0.0
2017-Oct-02 23:00N 51°57' E 004°02'0 0.0
2017-Oct-02 22:30N 51°57' E 004°02'0 0.0
2017-Oct-02 22:00N 51°57' E 004°02'0 0.0
2017-Oct-02 21:31N 51°57' E 004°02'0 0.0
2017-Oct-02 21:00N 51°57' E 004°02'0 0.0
2017-Oct-02 20:30N 51°57' E 004°02'0 0.0
2017-Oct-02 20:00N 51°57' E 004°02'0 0.0
2017-Oct-02 19:30N 51°57' E 004°02'0 0.0
2017-Oct-02 19:00N 51°57' E 004°02'0 0.0
2017-Oct-02 18:31N 51°57' E 004°02'0 0.0
2017-Oct-02 18:00N 51°57' E 004°02'0 0.0
2017-Oct-02 17:30N 51°57' E 004°02'0 0.0
2017-Oct-02 17:00N 51°57' E 004°02'0 0.0
2017-Oct-02 16:30N 51°57' E 004°02'0 0.0
2017-Oct-02 16:00N 51°57' E 004°02'0 0.0
2017-Oct-02 15:31N 51°57' E 004°02'0 0.0
2017-Oct-02 15:00N 51°57' E 004°02'0 0.0
2017-Oct-02 14:30N 51°57' E 004°02'0 0.0
2017-Oct-02 14:00N 51°57' E 004°02'0 0.0
2017-Oct-02 13:30N 51°57' E 004°02'0 0.0
2017-Oct-02 13:00N 51°57' E 004°02'0 0.0
2017-Oct-02 12:30N 51°57' E 004°02'0 0.0
2017-Oct-02 12:00N 51°57' E 004°02'0 0.0
2017-Oct-02 11:30N 51°57' E 004°02'0 0.0
2017-Oct-02 11:00N 51°57' E 004°02'0 0.0
2017-Oct-02 10:30N 51°57' E 004°02'0 0.0
2017-Oct-02 10:00N 51°57' E 004°02'0 0.0
2017-Oct-02 09:30N 51°57' E 004°02'0 0.0
2017-Oct-02 09:00N 51°57' E 004°02'0 0.0
2017-Oct-02 08:30N 51°57' E 004°02'0 0.0
2017-Oct-02 08:00N 51°57' E 004°02'0 0.0
2017-Oct-02 07:30N 51°57' E 004°02'0 0.0
2017-Oct-02 07:00N 51°57' E 004°02'0 0.0
2017-Oct-02 06:30N 51°57' E 004°02'0 0.0
2017-Oct-02 06:00N 51°57' E 004°02'0 0.0
2017-Oct-02 05:31N 51°57' E 004°02'0 0.0
2017-Oct-02 05:00N 51°57' E 004°02'0 0.0
2017-Oct-02 04:30N 51°57' E 004°02'0 0.0
2017-Oct-02 04:00N 51°57' E 004°02'0 0.0
2017-Oct-02 03:30N 51°57' E 004°02'0 0.0
2017-Oct-02 03:00N 51°57' E 004°02'0 0.0
2017-Oct-02 02:30N 51°57' E 004°02'0 0.0
2017-Oct-02 02:00N 51°57' E 004°02'0 0.0
2017-Oct-02 01:30N 51°57' E 004°02'0 0.0
2017-Oct-02 01:00N 51°57' E 004°02'0 0.0
2017-Oct-02 00:30N 51°57' E 004°02'0 0.0
2017-Oct-02 00:01N 51°57' E 004°02'0 0.0
2017-Oct-01 23:31N 51°57' E 004°02'0 0.0
2017-Oct-01 23:00N 51°57' E 004°02'0 0.0
2017-Oct-01 22:30N 51°57' E 004°02'0 0.8
2017-Oct-01 22:00N 51°58' E 004°03'1 1.6
2017-Oct-01 21:30N 51°58' E 004°04'1 2.9
2017-Oct-01 21:00N 51°59' E 004°04'510.5
2017-Oct-01 20:31N 52°01' E 003°55'612.4
2017-Oct-01 20:00N 51°60' E 003°45'4 7.2
2017-Oct-01 19:30N 51°59' E 003°40'713.8
2017-Oct-01 19:00N 51°56' E 003°30'1216.8
2017-Oct-01 18:17N 51°47' E 003°16'514.8
2017-Oct-01 17:57N 51°43' E 003°12'512.3
2017-Oct-01 17:30N 51°37' E 003°11'815.9
2017-Oct-01 17:00N 51°30' E 003°05'612.7
2017-Oct-01 16:30N 51°25' E 003°00'816.2
2017-Oct-01 16:00N 51°24' E 003°13'816.8
2017-Oct-01 15:30N 51°25' E 003°27'612.1
2017-Oct-01 15:00N 51°26' E 003°36'510.8
2017-Oct-01 14:30N 51°23' E 003°43'714.7
2017-Oct-01 14:00N 51°22' E 003°55'510.2
2017-Oct-01 13:30N 51°25' E 004°02'510.6
2017-Oct-01 13:00N 51°23' E 004°10'5 9.2
2017-Oct-01 12:30N 51°21' E 004°16'3 6.4
2017-Oct-01 12:00N 51°17' E 004°16'0 0.3
2017-Oct-01 11:30N 51°17' E 004°15'0 0.0
2017-Oct-01 11:00N 51°17' E 004°15'0 0.0
2017-Oct-01 10:30N 51°17' E 004°15'0 0.0
2017-Oct-01 10:00N 51°17' E 004°15'0 0.0
2017-Oct-01 09:30N 51°17' E 004°15'0 0.0
2017-Oct-01 09:00N 51°17' E 004°15'0 0.0
2017-Oct-01 08:30N 51°17' E 004°15'0 0.0
2017-Oct-01 08:00N 51°17' E 004°15'0 0.0
2017-Oct-01 07:30N 51°17' E 004°15'0 0.0
2017-Oct-01 07:00N 51°17' E 004°15'0 0.0
2017-Oct-01 06:30N 51°17' E 004°15'0 0.0
2017-Oct-01 06:00N 51°17' E 004°15'0 0.0
2017-Oct-01 05:30N 51°17' E 004°15'0 0.0
2017-Oct-01 05:00N 51°17' E 004°15'0 0.0
2017-Oct-01 04:30N 51°17' E 004°15'0 0.0
2017-Oct-01 04:00N 51°17' E 004°15'0 0.0
2017-Oct-01 03:30N 51°17' E 004°15'0 0.0
2017-Oct-01 03:00N 51°17' E 004°15'  

Dump ship's entire track history